Time;durP1;ratioP1;P1;durP2;ratioP2;P2;SDS_P1;SDS_P2;PMS_P1;PMS_P2;Temp;Humidity;BMP_temperature;BMP_pressure;BME280_temperature;BME280_humidity;BME280_pressure;Samples;Min_cycle;Max_cycle;Signal;HPM_P1;HPM_P2
2024/04/14 00:00:37;;;;;;;2.63;1.48;;;24.80;42.60;;;;;;5425306;26;20311;-64
2024/04/14 00:03:03;;;;;;;3.15;1.48;;;24.80;42.60;;;;;;5425631;26;20129;-64
2024/04/14 00:05:29;;;;;;;3.05;1.55;;;24.80;42.70;;;;;;5423976;26;20308;-63
2024/04/14 00:07:54;;;;;;;2.10;1.30;;;24.80;42.70;;;;;;5424764;26;20083;-63
2024/04/14 00:10:20;;;;;;;1.92;1.30;;;24.80;42.70;;;;;;5426452;26;19999;-64
2024/04/14 00:12:46;;;;;;;2.20;1.40;;;24.80;42.70;;;;;;5425435;26;20425;-64
2024/04/14 00:15:11;;;;;;;2.78;1.50;;;24.80;42.70;;;;;;5428786;26;20470;-64
2024/04/14 00:17:38;;;;;;;1.92;1.30;;;24.80;42.70;;;;;;5429354;26;19990;-63
2024/04/14 00:20:06;;;;;;;2.10;1.30;;;24.80;42.70;;;;;;5425398;26;19995;-63
2024/04/14 00:22:31;;;;;;;2.28;1.40;;;24.80;42.70;;;;;;5436646;26;20023;-64
2024/04/14 00:24:57;;;;;;;2.17;1.30;;;24.70;42.70;;;;;;5430049;26;20033;-63
2024/04/14 00:27:23;;;;;;;2.08;1.30;;;24.70;42.70;;;;;;5429130;26;20044;-64
2024/04/14 00:29:48;;;;;;;2.10;1.45;;;24.70;42.70;;;;;;5426244;26;20412;-64
2024/04/14 00:32:14;;;;;;;1.70;1.20;;;24.80;42.70;;;;;;5429459;26;20060;-63
2024/04/14 00:34:40;;;;;;;2.45;1.42;;;24.70;42.70;;;;;;5424344;26;20083;-64
2024/04/14 00:37:06;;;;;;;2.20;1.48;;;24.70;42.70;;;;;;5423145;26;20411;-64
2024/04/14 00:39:31;;;;;;;2.08;1.30;;;24.70;42.70;;;;;;5429208;26;20044;-64
2024/04/14 00:41:58;;;;;;;2.00;1.13;;;24.70;42.70;;;;;;5426201;26;20463;-63
2024/04/14 00:44:24;;;;;;;1.55;1.10;;;24.70;42.80;;;;;;5429687;26;20010;-62
2024/04/14 00:46:51;;;;;;;1.55;1.08;;;24.70;42.80;;;;;;5429776;26;20718;-61
2024/04/14 00:49:18;;;;;;;2.08;1.40;;;24.70;42.80;;;;;;5426538;26;20010;-61
2024/04/14 00:51:43;;;;;;;1.80;1.20;;;24.70;42.80;;;;;;5422854;26;20007;-61
2024/04/14 00:54:11;;;;;;;2.13;1.33;;;24.60;42.80;;;;;;5423397;26;19995;-61
2024/04/14 00:56:37;;;;;;;1.70;1.20;;;24.70;42.80;;;;;;5425509;26;20637;-63
2024/04/14 00:59:03;;;;;;;1.88;1.30;;;24.60;42.80;;;;;;5426879;26;19999;-63
2024/04/14 01:01:28;;;;;;;1.90;1.10;;;24.60;42.80;;;;;;5426240;26;20002;-63
2024/04/14 01:03:54;;;;;;;1.73;1.33;;;24.60;42.80;;;;;;5430946;26;20077;-63
2024/04/14 01:06:20;;;;;;;1.42;1.13;;;24.60;42.80;;;;;;5427063;26;20000;-63
2024/04/14 01:08:46;;;;;;;1.92;1.30;;;24.60;42.80;;;;;;5432902;26;20004;-63
2024/04/14 01:11:12;;;;;;;1.92;1.23;;;24.60;42.80;;;;;;5431411;26;19998;-63
2024/04/14 01:13:37;;;;;;;2.03;1.35;;;24.60;42.80;;;;;;5430649;26;20426;-63
2024/04/14 01:16:03;;;;;;;2.00;1.25;;;24.60;42.80;;;;;;5424591;26;20086;-63
2024/04/14 01:18:29;;;;;;;2.65;1.40;;;24.50;42.80;;;;;;5431654;26;20006;-63
2024/04/14 01:20:54;;;;;;;2.20;1.27;;;24.50;42.80;;;;;;5429371;26;20019;-63
2024/04/14 01:23:20;;;;;;;2.72;1.40;;;24.50;42.80;;;;;;5433267;26;20301;-63
2024/04/14 01:25:46;;;;;;;2.00;1.40;;;24.60;42.90;;;;;;5431622;26;20010;-63
2024/04/14 01:28:12;;;;;;;1.80;1.30;;;24.60;42.90;;;;;;5429429;26;19999;-63
2024/04/14 01:30:38;;;;;;;2.08;1.40;;;24.50;42.80;;;;;;5430385;26;20489;-63
2024/04/14 01:33:03;;;;;;;1.65;1.20;;;24.50;42.80;;;;;;5434478;26;20000;-63
2024/04/14 01:35:29;;;;;;;2.45;1.40;;;24.50;42.90;;;;;;5428973;26;19999;-63
2024/04/14 01:37:55;;;;;;;2.20;1.25;;;24.50;42.90;;;;;;5429544;26;20004;-63
2024/04/14 01:40:20;;;;;;;1.85;1.25;;;24.50;42.90;;;;;;5429174;26;20352;-63
2024/04/14 01:42:46;;;;;;;1.90;1.30;;;24.50;42.90;;;;;;5431622;26;20014;-63
2024/04/14 01:45:11;;;;;;;1.58;1.13;;;24.50;43.40;;;;;;5430903;26;20808;-63
2024/04/14 01:47:37;;;;;;;2.00;1.30;;;24.50;42.90;;;;;;5428552;26;20004;-63
2024/04/14 01:50:04;;;;;;;1.70;1.20;;;24.50;42.90;;;;;;5425622;26;20030;-63
2024/04/14 01:52:29;;;;;;;1.85;1.25;;;24.50;42.90;;;;;;5429009;26;20013;-63
2024/04/14 01:54:55;;;;;;;1.95;1.13;;;24.50;42.90;;;;;;5431835;26;19999;-62
2024/04/14 01:57:21;;;;;;;2.45;1.38;;;24.40;42.90;;;;;;5428540;26;20004;-62
2024/04/14 01:59:48;;;;;;;1.60;1.20;;;24.40;42.90;;;;;;5427143;26;20004;-62
2024/04/14 02:02:14;;;;;;;2.88;1.30;;;24.50;43.50;;;;;;5434688;26;20007;-62
2024/04/14 02:04:39;;;;;;;1.83;1.20;;;24.40;42.90;;;;;;5428559;26;20472;-62
2024/04/14 02:07:05;;;;;;;2.33;1.20;;;24.40;43.00;;;;;;5428178;26;20451;-63
2024/04/14 02:09:31;;;;;;;1.58;1.10;;;24.50;43.00;;;;;;5428308;26;19995;-63
2024/04/14 02:11:56;;;;;;;1.92;1.38;;;24.40;43.00;;;;;;5428601;26;20181;-63
2024/04/14 02:14:22;;;;;;;2.00;1.25;;;24.40;43.00;;;;;;5428851;26;20373;-63
2024/04/14 02:16:47;;;;;;;2.03;1.27;;;24.40;43.00;;;;;;5430405;26;19994;-63
2024/04/14 02:19:13;;;;;;;1.70;1.20;;;24.40;43.00;;;;;;5427107;26;19995;-63
2024/04/14 02:21:39;;;;;;;1.40;1.15;;;24.40;43.00;;;;;;5424878;26;20370;-63
2024/04/14 02:24:04;;;;;;;1.90;1.40;;;24.40;43.00;;;;;;5427135;26;20036;-63
2024/04/14 02:26:30;;;;;;;1.58;1.13;;;24.40;43.00;;;;;;5428239;26;20367;-63
2024/04/14 02:28:56;;;;;;;2.00;1.38;;;24.40;43.00;;;;;;5428148;26;20000;-63
2024/04/14 02:31:21;;;;;;;1.52;1.20;;;24.40;43.00;;;;;;5430482;26;20113;-63
2024/04/14 02:33:47;;;;;;;1.80;1.20;;;24.30;43.00;;;;;;5435780;26;20007;-64
2024/04/14 02:36:13;;;;;;;1.80;1.30;;;24.30;43.00;;;;;;5430999;26;20067;-64
2024/04/14 02:38:38;;;;;;;1.95;1.27;;;24.30;43.00;;;;;;5427071;26;20336;-63
2024/04/14 02:41:05;;;;;;;1.30;1.10;;;24.30;43.00;;;;;;5432353;26;19994;-63
2024/04/14 02:43:33;;;;;;;1.58;1.25;;;24.30;43.00;;;;;;5427746;26;20006;-63
2024/04/14 02:45:59;;;;;;;1.60;1.20;;;24.30;43.00;;;;;;5430028;26;20676;-63
2024/04/14 02:48:25;;;;;;;1.45;1.15;;;24.30;43.10;;;;;;5426940;26;19995;-63
2024/04/14 02:50:51;;;;;;;2.08;1.35;;;24.30;43.10;;;;;;5425964;26;20007;-63
2024/04/14 02:53:16;;;;;;;1.55;1.17;;;24.30;43.00;;;;;;5432421;26;20484;-63
2024/04/14 02:55:43;;;;;;;1.33;1.10;;;24.30;43.10;;;;;;5427131;26;20664;-63
2024/04/14 02:58:09;;;;;;;1.55;1.15;;;24.30;43.10;;;;;;5428911;26;21144;-63
2024/04/14 03:00:35;;;;;;;1.58;1.20;;;24.30;43.10;;;;;;5430712;26;20018;-63
2024/04/14 03:03:01;;;;;;;1.73;1.33;;;24.30;43.10;;;;;;5429638;26;20448;-63
2024/04/14 03:05:27;;;;;;;2.08;1.38;;;24.30;43.10;;;;;;5424312;26;20014;-63
2024/04/14 03:07:53;;;;;;;1.55;1.15;;;24.30;43.10;;;;;;5426700;26;20003;-63
2024/04/14 03:10:19;;;;;;;1.83;1.20;;;24.20;43.00;;;;;;5428744;26;20009;-63
2024/04/14 03:12:45;;;;;;;1.52;1.08;;;24.20;43.00;;;;;;5426565;26;20003;-64
2024/04/14 03:15:11;;;;;;;1.65;1.23;;;24.30;43.10;;;;;;5429565;26;20018;-60
2024/04/14 03:17:38;;;;;;;1.90;1.35;;;24.20;43.10;;;;;;5425942;26;20034;-59
2024/04/14 03:20:05;;;;;;;1.90;1.20;;;24.20;43.10;;;;;;5427653;26;20000;-59
2024/04/14 03:22:34;;;;;;;1.80;1.20;;;24.20;43.10;;;;;;5424241;26;20011;-60
2024/04/14 03:24:59;;;;;;;1.58;1.20;;;24.20;43.10;;;;;;5428205;26;20003;-60
2024/04/14 03:27:25;;;;;;;1.50;1.05;;;24.20;43.10;;;;;;5430041;26;20014;-60
2024/04/14 03:29:51;;;;;;;1.80;1.10;;;24.20;43.10;;;;;;5431428;26;20037;-59
2024/04/14 03:32:16;;;;;;;1.70;1.23;;;24.20;43.10;;;;;;5426586;26;19998;-60
2024/04/14 03:34:42;;;;;;;1.30;1.10;;;24.20;43.10;;;;;;5427279;26;20006;-60
2024/04/14 03:37:09;;;;;;;1.33;1.08;;;24.20;43.20;;;;;;5425826;26;20003;-59
2024/04/14 03:39:35;;;;;;;1.40;1.00;;;24.20;43.20;;;;;;5429232;26;20011;-60
2024/04/14 03:42:01;;;;;;;1.63;1.20;;;24.20;43.10;;;;;;5432778;26;20036;-60
2024/04/14 03:44:30;;;;;;;1.25;1.10;;;24.20;43.10;;;;;;5433680;26;19999;-60
2024/04/14 03:46:56;;;;;;;;;;;24.20;43.20;;;;;;5427789;26;20070;-61
2024/04/14 03:49:21;;;;;;;1.48;1.20;;;24.20;43.20;;;;;;5428821;26;20298;-60
2024/04/14 03:51:47;;;;;;;1.90;1.33;;;24.10;43.10;;;;;;5420599;26;20042;-59
2024/04/14 03:54:13;;;;;;;1.60;1.20;;;24.10;43.10;;;;;;5429739;26;19995;-60
2024/04/14 03:56:38;;;;;;;1.60;1.15;;;24.10;43.20;;;;;;5427353;26;20013;-61
2024/04/14 03:59:04;;;;;;;1.70;1.15;;;24.10;43.20;;;;;;5428583;26;20010;-60
2024/04/14 04:01:30;;;;;;;1.25;1.00;;;24.10;43.20;;;;;;5423573;26;20003;-60
2024/04/14 04:03:56;;;;;;;1.42;1.10;;;24.10;43.20;;;;;;5429044;26;20003;-59
2024/04/14 04:06:22;;;;;;;1.42;1.10;;;24.10;43.20;;;;;;5422632;26;20011;-60
2024/04/14 04:08:48;;;;;;;1.73;1.20;;;24.10;43.20;;;;;;5425872;26;20033;-59
2024/04/14 04:11:13;;;;;;;1.42;1.20;;;24.10;43.20;;;;;;5422229;26;20084;-60
2024/04/14 04:13:39;;;;;;;1.38;1.05;;;24.10;43.20;;;;;;5426193;26;20454;-61
2024/04/14 04:16:06;;;;;;;1.50;1.10;;;24.10;43.20;;;;;;5422635;26;20006;-63
2024/04/14 04:18:33;;;;;;;1.27;1.10;;;24.10;43.20;;;;;;5425904;26;20430;-63
2024/04/14 04:21:05;;;;;;;1.48;1.20;;;24.10;43.20;;;;;;5425094;26;20011;-63
2024/04/14 04:23:31;;;;;;;1.48;1.17;;;24.10;43.30;;;;;;5430349;26;20656;-63
2024/04/14 04:25:58;;;;;;;1.20;1.00;;;24.10;43.30;;;;;;5427434;26;20031;-61
2024/04/14 04:28:25;;;;;;;1.38;1.10;;;24.10;43.30;;;;;;5442368;26;19999;-61
2024/04/14 04:30:51;;;;;;;1.23;1.10;;;24.10;43.30;;;;;;5428355;26;20017;-60
2024/04/14 04:33:17;;;;;;;1.83;1.20;;;24.00;43.20;;;;;;5424282;26;20479;-61
2024/04/14 04:35:53;;;;;;;1.23;1.00;;;24.00;43.30;;;;;;5431721;26;19995;-61
2024/04/14 04:38:19;;;;;;;1.50;1.10;;;24.10;43.30;;;;;;5428005;26;20007;-61
2024/04/14 04:40:45;;;;;;;1.67;1.20;;;24.00;43.20;;;;;;5429030;26;20403;-61
2024/04/14 04:43:11;;;;;;;1.60;1.13;;;24.00;43.30;;;;;;5430267;26;20013;-61
2024/04/14 04:45:36;;;;;;;1.63;1.10;;;24.00;43.30;;;;;;5431101;26;20460;-61
2024/04/14 04:48:02;;;;;;;1.50;1.20;;;24.00;43.30;;;;;;5430269;26;20225;-61
2024/04/14 04:50:28;;;;;;;1.48;1.00;;;24.00;43.30;;;;;;5431692;26;20014;-60
2024/04/14 04:52:55;;;;;;;1.10;1.00;;;24.00;43.30;;;;;;5433090;26;20583;-61
2024/04/14 04:55:21;;;;;;;1.52;1.10;;;24.00;43.30;;;;;;5430857;26;20002;-64
2024/04/14 04:57:46;;;;;;;1.33;1.20;;;24.00;43.30;;;;;;5432499;26;20027;-61
2024/04/14 05:00:13;;;;;;;1.50;1.00;;;24.00;43.30;;;;;;5429484;26;20504;-61
2024/04/14 05:02:38;;;;;;;1.92;1.10;;;24.00;43.30;;;;;;5430104;26;20492;-62
2024/04/14 05:05:04;;;;;;;1.23;1.05;;;24.00;43.30;;;;;;5428098;26;20003;-62
2024/04/14 05:07:32;;;;;;;1.45;1.23;;;24.00;43.30;;;;;;5424676;26;20354;-60
2024/04/14 05:09:58;;;;;;;1.30;1.00;;;24.00;43.30;;;;;;5431818;26;20488;-61
2024/04/14 05:12:24;;;;;;;1.70;1.20;;;24.00;43.40;;;;;;5430955;26;20006;-60
2024/04/14 05:14:49;;;;;;;1.10;1.00;;;23.90;43.30;;;;;;5428001;26;20071;-61
2024/04/14 05:17:15;;;;;;;1.52;1.10;;;23.90;43.30;;;;;;5429343;26;19995;-61
2024/04/14 05:19:40;;;;;;;1.80;1.20;;;23.90;43.30;;;;;;5432144;26;19998;-61
2024/04/14 05:22:06;;;;;;;1.70;1.10;;;23.90;43.30;;;;;;5425099;26;20038;-61
2024/04/14 05:24:32;;;;;;;1.35;1.10;;;23.90;43.30;;;;;;5428067;26;20044;-61
2024/04/14 05:26:57;;;;;;;1.30;1.10;;;23.90;43.30;;;;;;5429606;26;20002;-63
2024/04/14 05:29:25;;;;;;;1.48;1.08;;;23.90;43.40;;;;;;5432138;26;20029;-63
2024/04/14 05:31:51;;;;;;;1.40;1.13;;;23.90;43.40;;;;;;5435196;26;20411;-63
2024/04/14 05:34:17;;;;;;;1.52;1.20;;;23.90;43.40;;;;;;5428865;26;20772;-63
2024/04/14 05:36:44;;;;;;;1.50;1.10;;;23.90;43.40;;;;;;5423354;26;20000;-63
2024/04/14 05:39:10;;;;;;;1.52;1.15;;;23.90;43.40;;;;;;5427730;26;20075;-62
2024/04/14 05:41:35;;;;;;;1.42;1.15;;;23.90;43.40;;;;;;5428150;26;19997;-63
2024/04/14 05:44:01;;;;;;;1.58;1.20;;;23.90;43.40;;;;;;5428115;26;20476;-63
2024/04/14 05:46:26;;;;;;;1.13;1.00;;;23.90;43.40;;;;;;5432152;26;20032;-63
2024/04/14 05:48:52;;;;;;;1.45;1.17;;;23.90;43.40;;;;;;5433170;26;20415;-63
2024/04/14 05:51:19;;;;;;;1.50;1.20;;;23.90;43.40;;;;;;5427449;26;19999;-63
2024/04/14 05:53:45;;;;;;;1.25;1.10;;;23.90;43.40;;;;;;5427972;26;19999;-62
2024/04/14 05:56:11;;;;;;;1.30;1.17;;;23.90;43.40;;;;;;5426758;26;19999;-63
2024/04/14 05:58:37;;;;;;;1.63;1.17;;;23.90;43.40;;;;;;5430823;26;20456;-63
2024/04/14 06:01:08;;;;;;;1.73;1.10;;;23.80;43.40;;;;;;5430044;26;20359;-63
2024/04/14 06:03:34;;;;;;;1.25;1.08;;;23.80;43.40;;;;;;5426652;26;20443;-62
2024/04/14 06:06:01;;;;;;;1.33;0.90;;;23.80;43.40;;;;;;5430680;26;20331;-63
2024/04/14 06:08:27;;;;;;;1.52;1.13;;;23.80;43.40;;;;;;5425030;26;20401;-63
2024/04/14 06:10:52;;;;;;;1.60;1.00;;;23.80;43.50;;;;;;5428695;26;20007;-62
2024/04/14 06:13:18;;;;;;;2.35;1.23;;;23.80;43.50;;;;;;5429524;26;20004;-62
2024/04/14 06:15:44;;;;;;;1.35;1.00;;;23.80;43.50;;;;;;5430546;26;19999;-63
2024/04/14 06:18:10;;;;;;;1.60;1.10;;;23.80;43.50;;;;;;5428174;26;19999;-63
2024/04/14 06:20:38;;;;;;;2.10;1.20;;;23.80;43.50;;;;;;5426131;26;20039;-63
2024/04/14 06:23:05;;;;;;;1.45;1.02;;;23.80;43.50;;;;;;5424960;26;20370;-64
2024/04/14 06:25:30;;;;;;;1.20;1.00;;;23.80;43.60;;;;;;5428747;26;20031;-63
2024/04/14 06:27:56;;;;;;;1.50;1.20;;;23.80;43.60;;;;;;5426966;26;20111;-62
2024/04/14 06:30:22;;;;;;;1.40;1.10;;;23.80;43.60;;;;;;5425808;26;20372;-62
2024/04/14 06:32:50;;;;;;;1.13;0.90;;;23.80;43.60;;;;;;5427394;26;20018;-62
2024/04/14 06:35:16;;;;;;;1.27;1.00;;;23.80;43.60;;;;;;5426520;26;20134;-62
2024/04/14 06:37:41;;;;;;;1.45;1.10;;;23.80;43.60;;;;;;5426550;26;19999;-63
2024/04/14 06:40:08;;;;;;;1.42;1.20;;;23.80;43.60;;;;;;5433698;26;20416;-63
2024/04/14 06:42:33;;;;;;;1.60;1.10;;;23.80;43.60;;;;;;5429459;26;19996;-63
2024/04/14 06:44:59;;;;;;;1.60;1.10;;;23.80;43.60;;;;;;5431338;26;20017;-62
2024/04/14 06:47:25;;;;;;;1.17;1.05;;;23.80;43.60;;;;;;5431988;26;20396;-60
2024/04/14 06:49:50;;;;;;;1.25;1.00;;;23.70;43.50;;;;;;5433209;26;19999;-60
2024/04/14 06:52:16;;;;;;;1.50;1.10;;;23.70;43.50;;;;;;5425803;26;20012;-61
2024/04/14 06:54:41;;;;;;;1.55;1.10;;;23.70;43.50;;;;;;5430168;26;20357;-61
2024/04/14 06:57:07;;;;;;;1.35;0.98;;;23.70;43.50;;;;;;5425169;26;20001;-60
2024/04/14 06:59:34;;;;;;;1.20;1.08;;;23.70;43.50;;;;;;5432969;26;20518;-62
2024/04/14 07:02:00;;;;;;;1.55;1.05;;;23.70;43.50;;;;;;5430786;26;19995;-60
2024/04/14 07:04:25;;;;;;;1.33;1.10;;;23.70;43.50;;;;;;5431056;26;20110;-60
2024/04/14 07:06:51;;;;;;;1.25;1.08;;;23.70;43.60;;;;;;5433083;26;19995;-61
2024/04/14 07:09:16;;;;;;;1.27;1.10;;;23.70;43.60;;;;;;5423813;26;20301;-61
2024/04/14 07:11:42;;;;;;;1.30;1.13;;;23.70;43.60;;;;;;5427001;26;19999;-60
2024/04/14 07:14:08;;;;;;;1.65;1.10;;;23.70;43.60;;;;;;5430112;26;20013;-60
2024/04/14 07:16:33;;;;;;;1.85;1.20;;;23.70;43.60;;;;;;5427489;26;20007;-61
2024/04/14 07:18:59;;;;;;;1.60;1.10;;;23.70;43.60;;;;;;5428012;26;20021;-61
2024/04/14 07:21:25;;;;;;;1.63;1.20;;;23.70;43.60;;;;;;5429442;26;19999;-60
2024/04/14 07:23:50;;;;;;;1.90;1.20;;;23.70;43.60;;;;;;5427724;26;20431;-60
2024/04/14 07:26:16;;;;;;;2.00;1.10;;;23.70;43.70;;;;;;5427539;26;20476;-60
2024/04/14 07:28:42;;;;;;;2.15;1.27;;;23.70;43.70;;;;;;5427223;26;19998;-61
2024/04/14 07:31:07;;;;;;;1.23;0.90;;;23.70;43.70;;;;;;5430148;26;20003;-60
2024/04/14 07:33:35;;;;;;;1.90;1.20;;;23.70;43.70;;;;;;5428012;26;21057;-61
2024/04/14 07:36:01;;;;;;;1.83;1.17;;;23.70;43.70;;;;;;5428450;26;20162;-60
2024/04/14 07:38:27;;;;;;;1.58;1.10;;;23.70;43.70;;;;;;5424959;26;20374;-60
2024/04/14 07:40:52;;;;;;;1.60;1.20;;;23.70;43.70;;;;;;5429193;26;20253;-60
2024/04/14 07:43:18;;;;;;;1.50;1.10;;;23.60;43.70;;;;;;5422691;26;20026;-61
2024/04/14 07:45:43;;;;;;;2.72;1.40;;;23.60;43.70;;;;;;5427714;26;20027;-61
2024/04/14 07:48:09;;;;;;;1.50;1.05;;;23.60;43.70;;;;;;5430493;26;20003;-62
2024/04/14 07:50:41;;;;;;;2.15;1.30;;;23.60;43.70;;;;;;5427941;26;20355;-62
2024/04/14 07:53:06;;;;;;;1.35;1.10;;;23.60;43.70;;;;;;5425270;26;20087;-62
2024/04/14 07:55:32;;;;;;;1.52;1.13;;;23.70;43.80;;;;;;5424138;26;20008;-62
2024/04/14 07:57:58;;;;;;;1.85;1.20;;;23.70;43.80;;;;;;5427287;26;20076;-63
2024/04/14 08:00:23;;;;;;;2.13;1.15;;;23.60;43.80;;;;;;5427634;26;19995;-62
2024/04/14 08:02:49;;;;;;;1.33;1.17;;;23.60;43.80;;;;;;5430385;26;20068;-62
2024/04/14 08:05:15;;;;;;;1.60;1.20;;;23.60;43.80;;;;;;5429669;26;19999;-62
2024/04/14 08:07:40;;;;;;;1.75;1.30;;;23.70;43.90;;;;;;5424820;26;20372;-62
2024/04/14 08:10:06;;;;;;;1.80;1.30;;;23.60;43.90;;;;;;5431223;26;19999;-63
2024/04/14 08:12:32;;;;;;;2.30;1.40;;;23.60;44.00;;;;;;5434273;26;20050;-63
2024/04/14 08:14:57;;;;;;;1.75;1.30;;;23.60;44.10;;;;;;5434029;26;20007;-62
2024/04/14 08:17:23;;;;;;;2.13;1.30;;;23.70;44.10;;;;;;5431990;26;19995;-63
2024/04/14 08:19:49;;;;;;;2.33;1.50;;;23.70;44.00;;;;;;5428893;26;19991;-63
2024/04/14 08:22:15;;;;;;;2.42;1.58;;;23.70;44.00;;;;;;5430282;26;20363;-63
2024/04/14 08:24:40;;;;;;;1.85;1.50;;;23.70;44.00;;;;;;5441461;26;20021;-62
2024/04/14 08:27:06;;;;;;;2.03;1.60;;;23.70;43.90;;;;;;5431275;26;19996;-62
2024/04/14 08:29:32;;;;;;;2.25;1.58;;;23.80;43.90;;;;;;5432763;26;19991;-62
2024/04/14 08:31:59;;;;;;;2.63;1.50;;;23.80;43.90;;;;;;5428654;26;20953;-62
2024/04/14 08:34:25;;;;;;;2.58;1.50;;;23.80;43.90;;;;;;5428022;26;20068;-62
2024/04/14 08:36:50;;;;;;;2.28;1.60;;;23.80;43.80;;;;;;5430502;26;20418;-62
2024/04/14 08:39:16;;;;;;;2.28;1.60;;;23.90;43.90;;;;;;5424753;26;20014;-61
2024/04/14 08:41:43;;;;;;;2.38;1.50;;;23.90;43.90;;;;;;5433955;26;20462;-62
2024/04/14 08:44:13;;;;;;;2.17;1.67;;;23.90;43.90;;;;;;5428241;26;20079;-62
2024/04/14 08:46:40;;;;;;;1.88;1.33;;;23.90;43.90;;;;;;5427947;26;20015;-62
2024/04/14 08:49:07;;;;;;;2.42;1.52;;;23.90;43.80;;;;;;5428256;26;20070;-62
2024/04/14 08:51:33;;;;;;;1.75;1.27;;;23.90;44.40;;;;;;5427909;26;20003;-61
2024/04/14 08:53:59;;;;;;;2.15;1.52;;;24.00;43.90;;;;;;5429459;26;20077;-62
2024/04/14 08:56:27;;;;;;;2.28;1.40;;;24.00;43.90;;;;;;5425629;26;20007;-61
2024/04/14 08:58:57;;;;;;;1.85;1.30;;;24.00;43.90;;;;;;5429731;26;20010;-60
2024/04/14 09:01:23;;;;;;;2.00;1.33;;;24.00;43.90;;;;;;5429477;26;20565;-61
2024/04/14 09:03:50;;;;;;;2.13;1.48;;;24.10;43.90;;;;;;5430207;26;20447;-61
2024/04/14 09:06:19;;;;;;;2.42;1.40;;;24.10;43.90;;;;;;5431286;26;20007;-62
2024/04/14 09:08:45;;;;;;;1.98;1.50;;;24.10;43.80;;;;;;5431645;26;20331;-63
2024/04/14 09:11:10;;;;;;;2.13;1.40;;;24.10;43.90;;;;;;5430303;26;19999;-63
2024/04/14 09:13:37;;;;;;;2.25;1.30;;;24.10;43.90;;;;;;5432761;26;20011;-63
2024/04/14 09:16:03;;;;;;;1.90;1.30;;;24.10;43.80;;;;;;5432730;26;19999;-63
2024/04/14 09:18:29;;;;;;;2.28;1.40;;;24.20;43.90;;;;;;5429947;26;19999;-63
2024/04/14 09:20:54;;;;;;;1.90;1.40;;;24.20;43.80;;;;;;5431499;26;20014;-63
2024/04/14 09:23:20;;;;;;;1.77;1.30;;;24.20;43.80;;;;;;5424648;26;20073;-63
2024/04/14 09:25:46;;;;;;;1.88;1.40;;;24.20;43.80;;;;;;5427710;26;20003;-63
2024/04/14 09:28:12;;;;;;;1.88;1.38;;;24.20;43.80;;;;;;5426521;26;20444;-63
2024/04/14 09:30:38;;;;;;;1.95;1.50;;;24.20;43.80;;;;;;5431253;26;20074;-63
2024/04/14 09:33:04;;;;;;;2.05;1.40;;;24.30;44.30;;;;;;5426663;26;20512;-63
2024/04/14 09:35:30;;;;;;;2.03;1.42;;;24.30;43.90;;;;;;5425058;26;20466;-63
2024/04/14 09:37:56;;;;;;;2.70;1.60;;;24.30;43.90;;;;;;5443840;26;19998;-63
2024/04/14 09:40:25;;;;;;;2.03;1.30;;;24.30;43.90;;;;;;5424101;26;20004;-63
2024/04/14 09:42:57;;;;;;;1.52;1.20;;;24.30;43.90;;;;;;5428014;26;20039;-63
2024/04/14 09:45:24;;;;;;;1.50;1.10;;;24.30;43.90;;;;;;5435588;26;20006;-63
2024/04/14 09:47:53;;;;;;;1.65;1.20;;;24.30;43.90;;;;;;5428780;26;20039;-63
2024/04/14 09:50:20;;;;;;;1.58;1.23;;;24.30;43.80;;;;;;5431018;26;19999;-63
2024/04/14 09:52:48;;;;;;;2.03;1.30;;;24.30;43.80;;;;;;5428435;26;20006;-63
2024/04/14 09:55:14;;;;;;;1.75;1.30;;;24.30;43.80;;;;;;5426508;26;20451;-63
2024/04/14 09:57:40;;;;;;;1.77;1.33;;;24.30;43.80;;;;;;5429675;26;20014;-62
2024/04/14 10:00:08;;;;;;;2.10;1.30;;;24.30;43.80;;;;;;5431960;26;20522;-63
2024/04/14 10:02:38;;;;;;;1.77;1.30;;;24.30;43.80;;;;;;5429791;26;20451;-63
2024/04/14 10:05:07;;;;;;;1.90;1.33;;;24.30;43.70;;;;;;5432420;26;20084;-63
2024/04/14 10:07:33;;;;;;;1.80;1.20;;;24.30;43.70;;;;;;5423953;26;20003;-62
2024/04/14 10:09:59;;;;;;;1.50;1.10;;;24.40;43.80;;;;;;5426798;26;20400;-62
2024/04/14 10:12:25;;;;;;;3.58;1.35;;;24.40;43.80;;;;;;5431166;26;20010;-62
2024/04/14 10:14:51;;;;;;;2.10;1.30;;;24.40;44.30;;;;;;5433366;26;20009;-63
2024/04/14 10:17:20;;;;;;;1.52;1.20;;;24.40;43.80;;;;;;5428067;26;19999;-63
2024/04/14 10:20:03;;;;;;;1.85;1.20;;;24.40;43.80;;;;;;5425796;26;21048;-63
2024/04/14 10:22:36;;;;;;;1.70;1.20;;;24.40;43.80;;;;;;5428924;26;20368;-63
2024/04/14 10:25:02;;;;;;;1.88;1.35;;;24.40;43.80;;;;;;5425513;26;20443;-63
2024/04/14 10:27:31;;;;;;;2.20;1.23;;;24.40;43.80;;;;;;5430445;26;20451;-63
2024/04/14 10:30:06;;;;;;;;;;;24.40;43.70;;;;;;5429987;26;19999;-62
2024/04/14 10:32:32;;;;;;;2.17;1.20;;;24.40;43.80;;;;;;5426053;26;19933;-62
2024/04/14 10:34:57;;;;;;;2.28;1.40;;;24.50;43.80;;;;;;5428005;26;20009;-63
2024/04/14 10:37:28;;;;;;;1.95;1.35;;;24.40;43.70;;;;;;5427533;26;20724;-62
2024/04/14 10:39:55;;;;;;;1.75;1.30;;;24.40;43.70;;;;;;5423889;26;20018;-63
2024/04/14 10:42:22;;;;;;;2.10;1.30;;;24.40;44.30;;;;;;5432127;26;20038;-63
2024/04/14 10:44:48;;;;;;;1.77;1.20;;;24.50;43.70;;;;;;5426663;26;20011;-62
2024/04/14 10:47:18;;;;;;;2.25;1.30;;;24.40;43.70;;;;;;5428971;26;20080;-62
2024/04/14 10:49:48;;;;;;;2.30;1.40;;;24.50;43.80;;;;;;5424791;26;20035;-62
2024/04/14 10:52:15;;;;;;;2.03;1.30;;;24.50;43.70;;;;;;5428849;26;20451;-62
2024/04/14 10:54:41;;;;;;;2.00;1.20;;;24.50;43.70;;;;;;5427557;26;20003;-62
2024/04/14 10:57:08;;;;;;;1.48;1.10;;;24.50;44.30;;;;;;5423613;26;20081;-62
2024/04/14 10:59:34;;;;;;;1.88;1.25;;;24.50;43.70;;;;;;5424459;26;20000;-62
2024/04/14 11:02:00;;;;;;;1.60;1.10;;;24.50;43.80;;;;;;5430079;26;20387;-62
2024/04/14 11:04:27;;;;;;;2.15;1.25;;;24.50;43.80;;;;;;5423480;26;20002;-62
2024/04/14 11:06:55;;;;;;;3.35;1.42;;;24.50;43.80;;;;;;5425157;26;20003;-62
2024/04/14 11:09:22;;;;;;;2.55;1.30;;;24.50;43.70;;;;;;5428036;26;20009;-63
2024/04/14 11:11:49;;;;;;;2.05;1.40;;;24.50;43.80;;;;;;5431298;26;20014;-63
2024/04/14 11:14:20;;;;;;;2.15;1.50;;;24.50;43.70;;;;;;5428162;26;20118;-63
2024/04/14 11:16:46;;;;;;;1.90;1.20;;;24.50;43.70;;;;;;5427279;26;20439;-61
2024/04/14 11:19:12;;;;;;;1.58;1.20;;;24.50;44.30;;;;;;5430281;26;20010;-61
2024/04/14 11:21:38;;;;;;;1.52;0.98;;;24.50;43.70;;;;;;5426812;26;20454;-61
2024/04/14 11:24:07;;;;;;;1.45;1.10;;;24.50;43.70;;;;;;5431411;26;19999;-62
2024/04/14 11:26:33;;;;;;;1.88;1.20;;;24.50;43.60;;;;;;5429183;26;20122;-62
2024/04/14 11:28:59;;;;;;;1.65;1.10;;;24.50;43.50;;;;;;5432421;26;20545;-62
2024/04/14 11:31:25;;;;;;;1.30;0.95;;;24.50;43.40;;;;;;5425413;26;20014;-62
2024/04/14 11:33:54;;;;;;;2.10;1.10;;;24.50;43.50;;;;;;5428931;26;20040;-62
2024/04/14 11:36:20;;;;;;;1.25;0.93;;;24.50;43.30;;;;;;5427528;26;20011;-62
2024/04/14 11:38:52;;;;;;;1.42;0.90;;;24.50;43.10;;;;;;5430866;26;21298;-62
2024/04/14 11:41:18;;;;;;;1.60;1.23;;;24.60;43.00;;;;;;5423786;26;20004;-63
2024/04/14 11:43:43;;;;;;;1.38;1.00;;;24.50;43.00;;;;;;5427241;26;20080;-62
2024/04/14 11:46:09;;;;;;;1.60;1.00;;;24.60;42.80;;;;;;5431204;26;20079;-62
2024/04/14 11:48:35;;;;;;;1.58;0.90;;;24.60;42.80;;;;;;5426394;26;20086;-61
2024/04/14 11:51:00;;;;;;;1.77;1.10;;;24.60;42.80;;;;;;5425240;26;20002;-62
2024/04/14 11:53:26;;;;;;;1.50;1.02;;;24.60;42.80;;;;;;5428390;26;20014;-62
2024/04/14 11:55:52;;;;;;;1.30;0.90;;;24.60;42.70;;;;;;5423014;26;20118;-62
2024/04/14 11:58:22;;;;;;;1.48;1.00;;;24.60;42.60;;;;;;5427816;26;20084;-62
2024/04/14 12:00:48;;;;;;;1.33;1.00;;;24.70;42.70;;;;;;5427800;26;20009;-62
2024/04/14 12:03:13;;;;;;;1.60;1.00;;;24.70;42.70;;;;;;5441388;26;20005;-62
2024/04/14 12:05:39;;;;;;;1.25;0.93;;;24.70;42.50;;;;;;5428481;26;19996;-62
2024/04/14 12:08:05;;;;;;;1.10;0.82;;;24.70;42.50;;;;;;5425626;26;20337;-62
2024/04/14 12:10:31;;;;;;;1.08;0.93;;;24.70;42.10;;;;;;5423862;26;20069;-62
2024/04/14 12:12:56;;;;;;;1.27;1.00;;;24.70;42.30;;;;;;5426161;26;20011;-62
2024/04/14 12:15:22;;;;;;;1.33;0.90;;;24.70;42.20;;;;;;5431510;26;20326;-62
2024/04/14 12:17:48;;;;;;;1.45;1.10;;;24.70;42.30;;;;;;5425315;26;19996;-62
2024/04/14 12:20:13;;;;;;;1.80;1.00;;;24.70;42.20;;;;;;5427316;26;19995;-62
2024/04/14 12:22:39;;;;;;;1.27;1.00;;;24.80;42.10;;;;;;5427632;26;20360;-62
2024/04/14 12:25:06;;;;;;;1.60;0.98;;;24.80;41.90;;;;;;5425103;26;20003;-62
2024/04/14 12:27:32;;;;;;;1.13;0.82;;;24.80;42.00;;;;;;5429264;26;19995;-63
2024/04/14 12:29:58;;;;;;;1.40;1.02;;;24.80;42.50;;;;;;5427140;26;20003;-63
2024/04/14 12:32:23;;;;;;;3.28;0.90;;;24.80;41.80;;;;;;5428716;26;20076;-63
2024/04/14 12:34:50;;;;;;;1.90;1.10;;;24.80;42.30;;;;;;5429473;26;20355;-63
2024/04/14 12:37:15;;;;;;;2.05;1.15;;;24.80;41.70;;;;;;5427689;26;20007;-62
2024/04/14 12:39:41;;;;;;;2.00;1.00;;;24.80;41.80;;;;;;5428268;26;19999;-62
2024/04/14 12:42:07;;;;;;;1.30;0.93;;;24.80;41.70;;;;;;5422936;26;20377;-62